createdAt,value
2018-12-06T00:03:03.988Z,3.47
2018-12-06T00:08:16.132Z,3.48
2018-12-06T00:13:18.913Z,3.44
2018-12-06T00:18:21.798Z,3.47
2018-12-06T00:23:24.828Z,3.48
2018-12-06T00:28:27.716Z,3.48
2018-12-06T00:33:30.628Z,3.49
2018-12-06T00:38:33.654Z,3.50
2018-12-06T00:43:36.420Z,3.47
2018-12-06T00:48:39.187Z,3.49
2018-12-06T00:53:42.157Z,3.45
2018-12-06T00:58:44.905Z,3.44
2018-12-06T01:03:47.811Z,3.41
2018-12-06T01:08:50.731Z,3.45
2018-12-06T01:13:53.562Z,3.43
2018-12-06T01:18:56.412Z,3.43
2018-12-06T01:23:59.442Z,3.41
2018-12-06T01:29:02.321Z,3.45
2018-12-06T01:34:05.207Z,3.46
2018-12-06T01:39:08.330Z,3.42
2018-12-06T01:44:11.011Z,3.43
2018-12-06T01:49:13.869Z,3.45
2018-12-06T01:54:16.706Z,3.51
2018-12-06T01:59:19.627Z,3.55
2018-12-06T02:04:22.353Z,3.56
2018-12-06T02:09:25.196Z,3.58
2018-12-06T02:14:27.977Z,3.56
2018-12-06T02:19:30.776Z,3.54
2018-12-06T02:24:34.196Z,3.53
2018-12-06T02:29:42.920Z,3.53
2018-12-06T02:34:45.773Z,3.52
2018-12-06T02:39:48.656Z,3.49
2018-12-06T02:44:51.458Z,3.49
2018-12-06T02:49:54.250Z,3.54
2018-12-06T02:54:57.138Z,3.54
2018-12-06T02:59:59.959Z,3.55
2018-12-06T03:05:02.937Z,3.56
2018-12-06T03:10:05.986Z,3.55
2018-12-06T03:15:09.099Z,3.57
2018-12-06T03:20:12.132Z,3.58
2018-12-06T03:25:14.795Z,3.61
2018-12-06T03:30:17.771Z,3.62
2018-12-06T03:35:20.727Z,3.65
2018-12-06T03:40:23.603Z,3.70
2018-12-06T03:45:27.032Z,3.71
2018-12-06T03:50:29.648Z,3.76
2018-12-06T03:55:32.389Z,3.79
2018-12-06T04:00:35.051Z,3.83
2018-12-06T04:05:37.700Z,3.85
2018-12-06T04:10:40.364Z,3.90
2018-12-06T04:15:43.081Z,3.97
2018-12-06T04:20:46.011Z,4.00
2018-12-06T04:25:48.829Z,4.04
2018-12-06T04:30:51.634Z,4.06
2018-12-06T04:35:56.414Z,4.10
2018-12-06T04:40:59.081Z,4.08
2018-12-06T04:46:01.748Z,4.12
2018-12-06T04:51:04.743Z,4.14
2018-12-06T04:56:07.476Z,4.18
2018-12-06T05:01:10.171Z,4.19
2018-12-06T05:06:13.385Z,4.23
2018-12-06T05:11:16.289Z,4.23
2018-12-06T05:16:19.166Z,4.24
2018-12-06T05:21:21.981Z,4.30
2018-12-06T05:26:24.902Z,4.33
2018-12-06T05:31:27.644Z,4.38
2018-12-06T05:36:30.512Z,4.41
2018-12-06T05:41:33.418Z,4.43
2018-12-06T05:46:36.280Z,4.48
2018-12-06T05:51:39.520Z,4.53
2018-12-06T05:56:42.271Z,4.57
2018-12-06T06:01:45.202Z,4.57
2018-12-06T06:06:48.076Z,4.63
2018-12-06T06:11:51.295Z,4.64
2018-12-06T06:16:54.172Z,4.65
2018-12-06T06:21:56.844Z,4.65
2018-12-06T06:26:59.884Z,4.66
2018-12-06T06:32:02.845Z,4.67
2018-12-06T06:37:05.855Z,4.69
2018-12-06T06:42:08.666Z,4.68
2018-12-06T06:47:11.853Z,4.71
2018-12-06T06:52:14.815Z,4.72
2018-12-06T06:57:17.865Z,4.73
2018-12-06T07:02:20.745Z,4.74
2018-12-06T07:07:23.632Z,4.78
2018-12-06T07:12:26.677Z,4.75
2018-12-06T07:17:29.479Z,4.78
2018-12-06T07:22:32.955Z,4.75
2018-12-06T07:27:36.720Z,4.75
2018-12-06T07:32:41.425Z,4.71
2018-12-06T07:37:44.316Z,4.69
2018-12-06T07:42:48.741Z,4.66
2018-12-06T07:47:53.021Z,4.65
2018-12-06T07:52:55.869Z,4.61
2018-12-06T07:57:58.770Z,4.66
2018-12-06T08:03:01.653Z,4.65
2018-12-06T08:08:04.525Z,4.69
2018-12-06T08:13:09.519Z,4.70
2018-12-06T08:18:13.154Z,4.76
2018-12-06T08:23:16.127Z,4.78
2018-12-06T08:34:20.386Z,4.86
2018-12-06T08:39:23.440Z,4.87
2018-12-06T08:44:26.372Z,4.94
2018-12-06T08:49:29.577Z,5.00
2018-12-06T08:54:32.504Z,5.07
2018-12-06T09:04:53.044Z,5.22
2018-12-06T09:09:56.600Z,5.25
2018-12-06T09:14:59.458Z,5.30
2018-12-06T09:20:02.282Z,5.32
2018-12-06T09:30:27.085Z,5.38
2018-12-06T09:35:31.105Z,5.45
2018-12-06T09:40:33.853Z,5.47
2018-12-06T09:45:38.088Z,5.46
2018-12-06T09:50:41.091Z,5.49
2018-12-06T09:55:48.713Z,5.51
2018-12-06T10:00:56.298Z,5.56
2018-12-06T10:06:00.520Z,5.59
2018-12-06T10:11:03.609Z,5.63
2018-12-06T10:21:32.576Z,5.69
2018-12-06T10:26:35.361Z,5.70
2018-12-06T10:37:04.117Z,5.79
2018-12-06T10:42:07.153Z,5.84
2018-12-06T10:47:09.996Z,5.86
2018-12-06T10:52:12.849Z,5.88
2018-12-06T10:57:20.207Z,5.91
2018-12-06T11:02:30.097Z,5.96
2018-12-06T11:07:34.596Z,5.99
2018-12-06T11:12:37.929Z,6.05
2018-12-06T11:17:40.597Z,6.10
2018-12-06T11:22:44.012Z,6.23
2018-12-06T11:27:46.699Z,6.31
2018-12-06T11:32:50.225Z,6.36
2018-12-06T11:37:53.006Z,6.39
2018-12-06T11:42:55.895Z,6.43
2018-12-06T11:47:59.480Z,6.45
2018-12-06T11:53:02.235Z,6.49
2018-12-06T11:58:11.459Z,6.54
2018-12-06T12:03:09.973Z,6.58
2018-12-06T12:08:12.897Z,6.56
2018-12-06T12:13:16.837Z,6.58
2018-12-06T12:18:23.541Z,6.62
2018-12-06T12:23:26.832Z,6.63
2018-12-06T12:28:29.841Z,6.67
2018-12-06T12:33:33.626Z,6.74
2018-12-06T12:38:39.383Z,6.79
2018-12-06T12:43:43.079Z,6.79
2018-12-06T12:48:45.917Z,6.79
2018-12-06T12:53:55.684Z,6.79
2018-12-06T12:58:58.221Z,6.81
2018-12-06T13:04:01.220Z,6.84
2018-12-06T13:09:07.132Z,6.84
2018-12-06T13:14:12.521Z,6.89
2018-12-06T13:19:15.363Z,6.92
2018-12-06T13:24:18.785Z,6.95
2018-12-06T13:29:21.613Z,6.99
2018-12-06T13:34:24.400Z,7.04
2018-12-06T13:44:51.022Z,7.09
2018-12-06T13:49:53.794Z,7.09
2018-12-06T13:54:56.863Z,7.12
2018-12-06T13:59:59.676Z,7.13
2018-12-06T14:05:04.083Z,7.15
2018-12-06T14:15:20.707Z,7.17
2018-12-06T14:20:23.733Z,7.19
2018-12-06T14:25:26.720Z,7.21
2018-12-06T14:30:29.702Z,7.23
2018-12-06T14:35:32.648Z,7.26
2018-12-06T14:40:35.601Z,7.28
2018-12-06T14:45:38.846Z,7.29
2018-12-06T14:50:42.978Z,7.28
2018-12-06T14:55:45.833Z,7.27
2018-12-06T15:00:48.790Z,7.27
2018-12-06T15:11:15.184Z,7.34
2018-12-06T15:16:18.056Z,7.38
2018-12-06T15:21:20.920Z,7.39
2018-12-06T15:26:23.762Z,7.40
2018-12-06T15:31:30.232Z,7.41
2018-12-06T15:36:33.267Z,7.40
2018-12-06T15:41:36.190Z,7.39
2018-12-06T15:46:39.122Z,7.39
2018-12-06T15:51:42.165Z,7.33
2018-12-06T15:56:46.021Z,7.26
2018-12-06T16:01:49.756Z,7.20
2018-12-06T16:06:53.256Z,7.15
2018-12-06T16:11:56.225Z,7.13
2018-12-06T16:16:59.193Z,7.09
2018-12-06T16:22:02.179Z,7.06
2018-12-06T16:27:05.316Z,7.02
2018-12-06T16:32:09.739Z,7.04
2018-12-06T16:37:20.836Z,7.06
2018-12-06T16:42:23.510Z,7.07
2018-12-06T16:47:26.614Z,7.11
2018-12-06T16:52:29.519Z,7.13
2018-12-06T17:02:56.194Z,7.18
2018-12-06T17:07:59.342Z,7.22
2018-12-06T17:13:02.439Z,7.25
2018-12-06T17:18:06.244Z,7.29
2018-12-06T17:23:09.074Z,7.35
2018-12-06T17:28:12.120Z,7.36
2018-12-06T17:33:14.888Z,7.40
2018-12-06T17:38:22.373Z,7.41
2018-12-06T17:43:25.290Z,7.44
2018-12-06T17:48:28.969Z,7.46
2018-12-06T17:53:31.857Z,7.51
2018-12-06T17:58:35.197Z,7.53
2018-12-06T18:03:38.122Z,7.56
2018-12-06T18:08:41.033Z,7.59
2018-12-06T18:13:43.823Z,7.63
2018-12-06T18:18:46.675Z,7.66
2018-12-06T18:23:50.255Z,7.71
2018-12-06T18:34:12.048Z,7.78
2018-12-06T18:39:14.987Z,7.79
2018-12-06T18:44:17.891Z,7.84
2018-12-06T18:49:20.786Z,7.89
2018-12-06T18:54:23.677Z,7.93
2018-12-06T18:59:26.412Z,8.02
2018-12-06T19:04:29.364Z,8.05
2018-12-06T19:09:32.088Z,8.11
2018-12-06T19:14:35.123Z,8.15
2018-12-06T19:19:38.127Z,8.20
2018-12-06T19:24:42.692Z,8.26
2018-12-06T19:29:46.913Z,8.29
2018-12-06T19:34:50.055Z,8.33
2018-12-06T19:39:52.884Z,8.32
2018-12-06T19:44:56.651Z,8.35
2018-12-06T19:49:59.574Z,8.38
2018-12-06T19:55:02.499Z,8.41
2018-12-06T20:00:08.465Z,8.44
2018-12-06T20:05:11.697Z,8.46
2018-12-06T20:10:14.975Z,8.48
2018-12-06T20:15:17.840Z,8.52
2018-12-06T20:20:23.834Z,8.56
2018-12-06T20:25:25.802Z,8.62
2018-12-06T20:30:28.640Z,8.68
2018-12-06T20:35:31.602Z,8.72
2018-12-06T20:40:34.729Z,8.79
2018-12-06T20:45:37.641Z,8.81
2018-12-06T20:50:49.157Z,8.84
2018-12-06T20:55:46.962Z,8.85
2018-12-06T21:00:49.757Z,8.86
2018-12-06T21:05:52.844Z,8.94
2018-12-06T21:10:55.640Z,8.95
2018-12-06T21:15:58.518Z,8.93
2018-12-06T21:21:01.339Z,8.91
2018-12-06T21:26:04.313Z,8.88
2018-12-06T21:31:07.258Z,8.93
2018-12-06T21:36:12.021Z,9.00
2018-12-06T21:41:15.167Z,9.07
2018-12-06T21:46:17.950Z,9.10
2018-12-06T21:51:21.710Z,9.12
2018-12-06T21:56:24.941Z,9.18
2018-12-06T22:01:27.897Z,9.20
2018-12-06T22:06:30.889Z,9.24
2018-12-06T22:11:33.845Z,9.26
2018-12-06T22:16:36.785Z,9.24
2018-12-06T22:21:40.788Z,9.23
2018-12-06T22:26:43.603Z,9.23
2018-12-06T22:31:46.471Z,9.21
2018-12-06T22:36:49.324Z,9.22
2018-12-06T22:41:52.203Z,9.20
2018-12-06T22:46:54.938Z,9.20
2018-12-06T22:51:57.870Z,9.19
2018-12-06T22:57:00.861Z,9.20
2018-12-06T23:02:03.890Z,9.20
2018-12-06T23:07:08.112Z,9.20
2018-12-06T23:12:11.053Z,9.21
2018-12-06T23:17:13.874Z,9.23
2018-12-06T23:22:17.156Z,9.25
2018-12-06T23:27:19.881Z,9.26
2018-12-06T23:32:22.817Z,9.27
2018-12-06T23:37:25.601Z,9.30
2018-12-06T23:42:28.733Z,9.31
2018-12-06T23:47:31.595Z,9.33
2018-12-06T23:52:34.520Z,9.38
2018-12-06T23:57:37.533Z,9.41
